Time;durP1;ratioP1;P1;durP2;ratioP2;P2;SDS_P1;SDS_P2;PMS_P1;PMS_P2;Temp;Humidity;BMP_temperature;BMP_pressure;BME280_temperature;BME280_humidity;BME280_pressure;Samples;Min_cycle;Max_cycle;Signal;HPM_P1;HPM_P2
2023/09/25 00:00:20;;;;;;;2.28;2.10;;;;;;;;;;5121293;28;20203;-62
2023/09/25 00:02:49;;;;;;;1.90;1.80;;;;;;;;;;5121895;28;20209;-62
2023/09/25 00:05:17;;;;;;;2.13;2.03;;;;;;;;;;5121242;28;20243;-62
2023/09/25 00:07:45;;;;;;;2.40;2.22;;;;;;;;;;5121554;28;20209;-62
2023/09/25 00:10:13;;;;;;;2.38;2.20;;;;;;;;;;5121733;28;20648;-62
2023/09/25 00:12:40;;;;;;;2.40;2.30;;;;;;;;;;5121342;28;20238;-62
2023/09/25 00:15:08;;;;;;;2.22;2.13;;;;;;;;;;5121606;28;20203;-62
2023/09/25 00:17:37;;;;;;;1.98;1.88;;;;;;;;;;5121489;28;20692;-62
2023/09/25 00:20:10;;;;;;;2.25;2.15;;;;;;;;;;5121128;28;20199;-62
2023/09/25 00:22:38;;;;;;;2.13;2.00;;;;;;;;;;5121298;28;20252;-62
2023/09/25 00:25:06;;;;;;;2.38;2.22;;;;;;;;;;5121123;28;20256;-62
2023/09/25 00:27:33;;;;;;;2.40;2.20;;;;;;;;;;5121514;28;20290;-62
2023/09/25 00:30:03;;;;;;;2.30;2.10;;;;;;;;;;5120800;28;20292;-62
2023/09/25 00:32:31;;;;;;;2.42;2.22;;;;;;;;;;5120944;28;20774;-62
2023/09/25 00:34:59;;;;;;;2.28;2.08;;;;;;;;;;5121161;28;20298;-62
2023/09/25 00:37:29;;;;;;;1.98;1.88;;;;;;;;;;5121185;28;20203;-62
2023/09/25 00:39:58;;;;;;;2.20;2.10;;;;;;;;;;5121268;28;20639;-62
2023/09/25 00:42:26;;;;;;;2.30;2.10;;;;;;;;;;5120824;28;20502;-62
2023/09/25 00:44:54;;;;;;;2.30;2.20;;;;;;;;;;5120984;28;20214;-63
2023/09/25 00:47:21;;;;;;;3.88;2.47;;;;;;;;;;5120298;28;20211;-62
2023/09/25 00:49:49;;;;;;;2.50;2.20;;;;;;;;;;5120615;28;20223;-62
2023/09/25 00:52:17;;;;;;;2.20;2.10;;;;;;;;;;5120765;28;20213;-62
2023/09/25 00:54:46;;;;;;;2.30;2.10;;;;;;;;;;5120674;28;20257;-62
2023/09/25 00:57:14;;;;;;;2.60;2.40;;;;;;;;;;5120701;28;20604;-62
2023/09/25 00:59:42;;;;;;;2.40;2.30;;;;;;;;;;5120364;28;20238;-62
2023/09/25 01:02:10;;;;;;;2.35;2.15;;;;;;;;;;5120257;28;20546;-63
2023/09/25 01:04:38;;;;;;;2.28;2.08;;;;;;;;;;5120347;28;20295;-62
2023/09/25 01:07:06;;;;;;;2.05;1.95;;;;;;;;;;5120242;28;20203;-63
2023/09/25 01:09:34;;;;;;;2.33;2.20;;;;;;;;;;5120204;28;20628;-62
2023/09/25 01:12:04;;;;;;;2.45;2.25;;;;;;;;;;5120654;28;20297;-62
2023/09/25 01:14:32;;;;;;;2.15;2.05;;;;;;;;;;5120227;28;20214;-62
2023/09/25 01:17:01;;;;;;;2.17;2.08;;;;;;;;;;5120943;28;20469;-63
2023/09/25 01:19:29;;;;;;;3.35;2.08;;;;;;;;;;5120225;28;20260;-62
2023/09/25 01:21:58;;;;;;;2.30;2.10;;;;;;;;;;5120180;28;20203;-63
2023/09/25 01:24:26;;;;;;;2.30;2.10;;;;;;;;;;5120267;28;20284;-62
2023/09/25 01:26:54;;;;;;;2.38;2.17;;;;;;;;;;5120236;28;20230;-62
2023/09/25 01:29:22;;;;;;;2.05;1.95;;;;;;;;;;5120072;28;20202;-63
2023/09/25 01:31:50;;;;;;;2.40;2.20;;;;;;;;;;5119954;28;20203;-63
2023/09/25 01:34:17;;;;;;;2.20;2.00;;;;;;;;;;5120022;28;20541;-63
2023/09/25 01:36:45;;;;;;;2.40;2.20;;;;;;;;;;5119770;28;20301;-63
2023/09/25 01:39:14;;;;;;;2.40;2.20;;;;;;;;;;5119826;28;20272;-63
2023/09/25 01:41:42;;;;;;;2.15;2.05;;;;;;;;;;5120202;28;20510;-63
2023/09/25 01:44:10;;;;;;;2.30;2.20;;;;;;;;;;5119715;28;20305;-63
2023/09/25 01:46:40;;;;;;;2.30;2.20;;;;;;;;;;5111063;28;20252;-62
2023/09/25 01:49:08;;;;;;;2.50;2.30;;;;;;;;;;5119407;28;20203;-62
2023/09/25 01:51:36;;;;;;;2.38;2.17;;;;;;;;;;5119359;28;20234;-62
2023/09/25 01:54:04;;;;;;;1.98;1.88;;;;;;;;;;5119104;28;20267;-62
2023/09/25 01:56:33;;;;;;;2.30;2.20;;;;;;;;;;5119648;28;20202;-62
2023/09/25 01:59:00;;;;;;;2.17;2.08;;;;;;;;;;5119649;28;20302;-62
2023/09/25 02:01:28;;;;;;;2.10;2.00;;;;;;;;;;5118951;28;20198;-62
2023/09/25 02:03:56;;;;;;;2.30;2.20;;;;;;;;;;5119129;28;20203;-62
2023/09/25 02:06:23;;;;;;;2.30;2.10;;;;;;;;;;5119032;28;20274;-62
2023/09/25 02:08:51;;;;;;;2.35;2.15;;;;;;;;;;5119232;28;20202;-62
2023/09/25 02:11:19;;;;;;;2.38;2.28;;;;;;;;;;5119015;28;20310;-62
2023/09/25 02:13:48;;;;;;;2.20;2.10;;;;;;;;;;5118443;28;20340;-62
2023/09/25 02:16:16;;;;;;;1.90;1.80;;;;;;;;;;5119276;28;20251;-62
2023/09/25 02:18:44;;;;;;;2.20;2.10;;;;;;;;;;5119595;28;20577;-62
2023/09/25 02:21:11;;;;;;;1.95;1.85;;;;;;;;;;5119159;28;20513;-62
2023/09/25 02:23:40;;;;;;;1.80;1.70;;;;;;;;;;5119097;28;20263;-62
2023/09/25 02:26:08;;;;;;;2.00;1.90;;;;;;;;;;5118844;28;20213;-62
2023/09/25 02:28:36;;;;;;;2.25;2.10;;;;;;;;;;5118985;28;20210;-62
2023/09/25 02:31:05;;;;;;;1.95;1.85;;;;;;;;;;5118579;28;20265;-62
2023/09/25 02:33:33;;;;;;;2.08;1.98;;;;;;;;;;5118861;28;20393;-62
2023/09/25 02:36:07;;;;;;;2.15;2.05;;;;;;;;;;5119181;28;20246;-62
2023/09/25 02:38:34;;;;;;;2.15;2.00;;;;;;;;;;5118852;28;20202;-62
2023/09/25 02:41:02;;;;;;;2.20;2.00;;;;;;;;;;5118739;28;20209;-62
2023/09/25 02:43:30;;;;;;;2.17;2.08;;;;;;;;;;5118570;28;20214;-62
2023/09/25 02:45:58;;;;;;;2.20;2.10;;;;;;;;;;5119002;28;20207;-62
2023/09/25 02:48:27;;;;;;;2.17;1.98;;;;;;;;;;5118144;28;20210;-62
2023/09/25 02:50:54;;;;;;;2.20;2.03;;;;;;;;;;5117993;28;20638;-63
2023/09/25 02:53:22;;;;;;;1.90;1.80;;;;;;;;;;5118458;28;20214;-62
2023/09/25 02:55:50;;;;;;;2.10;2.00;;;;;;;;;;5118118;28;20263;-62
2023/09/25 02:58:18;;;;;;;2.25;2.10;;;;;;;;;;5118089;28;20206;-62
2023/09/25 03:00:46;;;;;;;2.20;2.10;;;;;;;;;;5118132;28;20203;-62
2023/09/25 03:03:14;;;;;;;2.20;2.10;;;;;;;;;;5118079;28;20203;-62
2023/09/25 03:05:44;;;;;;;2.05;1.95;;;;;;;;;;5118077;28;20238;-62
2023/09/25 03:08:11;;;;;;;1.90;1.80;;;;;;;;;;5118221;28;20202;-62
2023/09/25 03:10:39;;;;;;;1.90;1.80;;;;;;;;;;5118363;28;20317;-62
2023/09/25 03:13:07;;;;;;;2.13;2.03;;;;;;;;;;5118001;28;20210;-62
2023/09/25 03:15:35;;;;;;;2.30;1.92;;;;;;;;;;5118064;28;20297;-62
2023/09/25 03:18:03;;;;;;;2.00;1.90;;;;;;;;;;5117806;28;20203;-62
2023/09/25 03:20:30;;;;;;;1.80;1.70;;;;;;;;;;5118233;28;20230;-62
2023/09/25 03:23:00;;;;;;;2.10;1.92;;;;;;;;;;5118247;28;20206;-62
2023/09/25 03:25:27;;;;;;;1.80;1.70;;;;;;;;;;5121450;28;20568;-62
2023/09/25 03:27:55;;;;;;;2.33;2.20;;;;;;;;;;5122049;28;20640;-62
2023/09/25 03:30:23;;;;;;;1.70;1.60;;;;;;;;;;5121762;28;20234;-62
2023/09/25 03:32:54;;;;;;;1.73;1.63;;;;;;;;;;5122053;28;20214;-62
2023/09/25 03:35:22;;;;;;;1.88;1.70;;;;;;;;;;5121663;28;20551;-62
2023/09/25 03:37:50;;;;;;;2.13;2.03;;;;;;;;;;5121487;28;20264;-62
2023/09/25 03:40:19;;;;;;;1.90;1.80;;;;;;;;;;5121589;28;20194;-62
2023/09/25 03:42:46;;;;;;;1.90;1.80;;;;;;;;;;5121885;28;20210;-62
2023/09/25 03:45:14;;;;;;;1.98;1.88;;;;;;;;;;5121772;28;20203;-62
2023/09/25 03:47:42;;;;;;;1.92;1.83;;;;;;;;;;5121281;28;20203;-62
2023/09/25 03:50:10;;;;;;;1.83;1.73;;;;;;;;;;5121141;28;20213;-62
2023/09/25 03:52:38;;;;;;;1.90;1.80;;;;;;;;;;5121249;28;20211;-62
2023/09/25 03:55:07;;;;;;;2.15;2.00;;;;;;;;;;5120915;28;20203;-62
2023/09/25 03:57:36;;;;;;;1.75;1.65;;;;;;;;;;5121512;28;20293;-62
2023/09/25 04:00:06;;;;;;;2.00;1.90;;;;;;;;;;5121466;28;20297;-62
2023/09/25 04:02:33;;;;;;;2.00;1.90;;;;;;;;;;5121727;28;20592;-62
2023/09/25 04:05:01;;;;;;;2.00;1.90;;;;;;;;;;5120975;28;20291;-62
2023/09/25 04:07:28;;;;;;;2.10;2.00;;;;;;;;;;5120509;28;20199;-63
2023/09/25 04:09:56;;;;;;;2.00;1.90;;;;;;;;;;5120326;28;20214;-63
2023/09/25 04:12:24;;;;;;;2.20;2.10;;;;;;;;;;5121068;28;20203;-63
2023/09/25 04:14:54;;;;;;;2.22;2.13;;;;;;;;;;5114815;28;20235;-63
2023/09/25 04:17:21;;;;;;;2.05;1.90;;;;;;;;;;5118484;28;20242;-63
2023/09/25 04:19:49;;;;;;;2.13;1.92;;;;;;;;;;5120520;28;20460;-63
2023/09/25 04:22:17;;;;;;;2.25;2.15;;;;;;;;;;5120246;28;20294;-63
2023/09/25 04:24:44;;;;;;;2.00;1.90;;;;;;;;;;5120450;28;20654;-63
2023/09/25 04:27:12;;;;;;;2.38;2.17;;;;;;;;;;5120007;28;20263;-63
2023/09/25 04:29:42;;;;;;;1.95;1.85;;;;;;;;;;5120006;28;20203;-63
2023/09/25 04:32:11;;;;;;;2.10;2.00;;;;;;;;;;5120444;28;20238;-63
2023/09/25 04:34:39;;;;;;;2.40;2.20;;;;;;;;;;5119471;28;20611;-63
2023/09/25 04:37:08;;;;;;;2.20;2.10;;;;;;;;;;5118938;28;20233;-63
2023/09/25 04:39:36;;;;;;;2.30;2.20;;;;;;;;;;5119795;28;20234;-63
2023/09/25 04:42:03;;;;;;;2.22;2.13;;;;;;;;;;5119842;28;20199;-62
2023/09/25 04:44:30;;;;;;;2.20;2.10;;;;;;;;;;5119741;28;20211;-62
2023/09/25 04:46:58;;;;;;;2.17;2.08;;;;;;;;;;5119590;28;20268;-62
2023/09/25 04:49:28;;;;;;;2.20;2.10;;;;;;;;;;5118907;28;20272;-62
2023/09/25 04:51:56;;;;;;;2.28;2.17;;;;;;;;;;5118564;28;20650;-62
2023/09/25 04:54:23;;;;;;;2.15;2.05;;;;;;;;;;5118092;28;20203;-62
2023/09/25 04:56:51;;;;;;;2.50;2.30;;;;;;;;;;5118099;28;20214;-62
2023/09/25 04:59:19;;;;;;;2.42;2.22;;;;;;;;;;5119056;28;20203;-62
2023/09/25 05:01:46;;;;;;;2.47;2.28;;;;;;;;;;5118897;28;20203;-62
2023/09/25 05:04:14;;;;;;;2.30;2.20;;;;;;;;;;5116613;28;20202;-62
2023/09/25 05:06:44;;;;;;;2.60;2.40;;;;;;;;;;5101288;28;20219;-62
2023/09/25 05:09:15;;;;;;;2.30;2.10;;;;;;;;;;5097379;28;20541;-62
2023/09/25 05:11:42;;;;;;;2.65;2.45;;;;;;;;;;5097206;28;20227;-62
2023/09/25 05:14:10;;;;;;;2.60;2.40;;;;;;;;;;5097115;28;20200;-62
2023/09/25 05:16:38;;;;;;;2.45;2.22;;;;;;;;;;5096847;28;20494;-62
2023/09/25 05:19:06;;;;;;;2.15;2.05;;;;;;;;;;5097225;28;20211;-62
2023/09/25 05:21:34;;;;;;;1.90;1.77;;;;;;;;;;5097022;28;20210;-62
2023/09/25 05:24:03;;;;;;;2.40;2.30;;;;;;;;;;5097480;28;20721;-62
2023/09/25 05:26:31;;;;;;;2.35;2.20;;;;;;;;;;5096852;28;20249;-62
2023/09/25 05:28:59;;;;;;;1.90;1.80;;;;;;;;;;5096750;28;20279;-62
2023/09/25 05:31:27;;;;;;;2.22;2.13;;;;;;;;;;5096489;28;20235;-62
2023/09/25 05:33:54;;;;;;;2.20;2.10;;;;;;;;;;5096790;28;20290;-63
2023/09/25 05:36:22;;;;;;;2.50;2.30;;;;;;;;;;5097513;28;20303;-62
2023/09/25 05:38:49;;;;;;;2.42;2.33;;;;;;;;;;5097341;28;20211;-62
2023/09/25 05:41:18;;;;;;;2.30;2.10;;;;;;;;;;5096814;28;20200;-62
2023/09/25 05:43:46;;;;;;;2.28;2.08;;;;;;;;;;5096185;28;20196;-62
2023/09/25 05:46:13;;;;;;;2.35;2.17;;;;;;;;;;5095724;28;20199;-62
2023/09/25 05:48:41;;;;;;;2.38;2.17;;;;;;;;;;5096559;28;20551;-62
2023/09/25 05:51:08;;;;;;;3.05;2.40;;;;;;;;;;5096065;28;20219;-62
2023/09/25 05:53:36;;;;;;;2.40;2.30;;;;;;;;;;5095985;28;20199;-62
2023/09/25 05:56:04;;;;;;;2.60;2.40;;;;;;;;;;5096096;28;20211;-62
2023/09/25 05:58:35;;;;;;;2.58;2.30;;;;;;;;;;5094849;28;20257;-62
2023/09/25 06:01:02;;;;;;;2.47;2.28;;;;;;;;;;5095706;28;20553;-62
2023/09/25 06:03:31;;;;;;;2.50;2.30;;;;;;;;;;5096078;28;20210;-62
2023/09/25 06:05:58;;;;;;;2.60;2.40;;;;;;;;;;5096034;28;20300;-62
2023/09/25 06:08:26;;;;;;;2.70;2.50;;;;;;;;;;5096876;28;20787;-62
2023/09/25 06:11:02;;;;;;;2.60;2.40;;;;;;;;;;5096245;28;20196;-62
2023/09/25 06:13:30;;;;;;;2.53;2.35;;;;;;;;;;5096220;28;20239;-62
2023/09/25 06:15:59;;;;;;;2.50;2.30;;;;;;;;;;5095373;28;20565;-62
2023/09/25 06:18:29;;;;;;;2.30;2.20;;;;;;;;;;5095678;28;20837;-62
2023/09/25 06:20:57;;;;;;;2.42;2.22;;;;;;;;;;5095420;28;20759;-62
2023/09/25 06:23:24;;;;;;;2.58;2.38;;;;;;;;;;5096004;28;20215;-62
2023/09/25 06:25:53;;;;;;;2.90;2.65;;;;;;;;;;5096676;28;20234;-62
2023/09/25 06:28:24;;;;;;;2.40;2.20;;;;;;;;;;5096163;28;20203;-62
2023/09/25 06:30:52;;;;;;;2.58;2.38;;;;;;;;;;5095782;28;20538;-62
2023/09/25 06:33:21;;;;;;;2.47;2.28;;;;;;;;;;5095720;28;20242;-62
2023/09/25 06:35:48;;;;;;;2.50;2.28;;;;;;;;;;5096243;28;20214;-62
2023/09/25 06:38:16;;;;;;;4.53;2.58;;;;;;;;;;5094685;28;20604;-62
2023/09/25 06:40:45;;;;;;;2.70;2.50;;;;;;;;;;5094908;28;20298;-62
2023/09/25 06:43:13;;;;;;;2.42;2.22;;;;;;;;;;5094187;28;20254;-62
2023/09/25 06:45:40;;;;;;;2.70;2.30;;;;;;;;;;5094804;28;20235;-63
2023/09/25 06:48:08;;;;;;;2.60;2.40;;;;;;;;;;5095667;28;20567;-63
2023/09/25 06:50:37;;;;;;;2.53;2.33;;;;;;;;;;5095743;28;20207;-63
2023/09/25 06:53:05;;;;;;;3.13;2.50;;;;;;;;;;5095332;28;20227;-63
2023/09/25 06:55:33;;;;;;;2.33;2.13;;;;;;;;;;5095722;28;20555;-63
2023/09/25 06:58:00;;;;;;;2.35;2.10;;;;;;;;;;5095078;28;20219;-63
2023/09/25 07:00:28;;;;;;;2.70;2.50;;;;;;;;;;5095920;28;20500;-63
2023/09/25 07:02:56;;;;;;;2.72;2.38;;;;;;;;;;5096277;28;20207;-63
2023/09/25 07:05:24;;;;;;;2.80;2.60;;;;;;;;;;5094994;28;20296;-62
2023/09/25 07:07:52;;;;;;;2.67;2.30;;;;;;;;;;5095334;28;20238;-62
2023/09/25 07:10:20;;;;;;;2.20;2.10;;;;;;;;;;5095555;28;20219;-62
2023/09/25 07:12:47;;;;;;;2.60;2.40;;;;;;;;;;5095549;28;20322;-62
2023/09/25 07:15:15;;;;;;;2.17;1.98;;;;;;;;;;5096298;28;20551;-62
2023/09/25 07:17:43;;;;;;;2.40;2.20;;;;;;;;;;5095686;28;20204;-62
2023/09/25 07:20:11;;;;;;;2.63;2.42;;;;;;;;;;5095529;28;20218;-62
2023/09/25 07:22:38;;;;;;;2.47;2.28;;;;;;;;;;5095444;28;20597;-62
2023/09/25 07:25:08;;;;;;;2.60;2.40;;;;;;;;;;5096001;28;20507;-62
2023/09/25 07:27:36;;;;;;;2.33;2.22;;;;;;;;;;5095512;28;20204;-62
2023/09/25 07:30:05;;;;;;;2.67;2.47;;;;;;;;;;5095519;28;20232;-62
2023/09/25 07:32:33;;;;;;;2.42;2.30;;;;;;;;;;5095565;28;20606;-63
2023/09/25 07:35:04;;;;;;;2.65;2.30;;;;;;;;;;5095662;28;20243;-63
2023/09/25 07:37:34;;;;;;;2.30;2.10;;;;;;;;;;5095500;28;20624;-63
2023/09/25 07:40:02;;;;;;;2.22;2.13;;;;;;;;;;5095237;28;20207;-63
2023/09/25 07:42:36;;;;;;;2.70;2.50;;;;;;;;;;5095244;28;20200;-63
2023/09/25 07:45:09;;;;;;;2.70;2.50;;;;;;;;;;5095037;28;20261;-62
2023/09/25 07:47:38;;;;;;;2.78;2.53;;;;;;;;;;5095365;28;20215;-62
2023/09/25 07:50:10;;;;;;;2.47;2.33;;;;;;;;;;5094849;28;20286;-62
2023/09/25 07:52:38;;;;;;;2.72;2.53;;;;;;;;;;5094448;28;20238;-62
2023/09/25 07:55:08;;;;;;;2.78;2.58;;;;;;;;;;5094835;28;20204;-62
2023/09/25 07:57:39;;;;;;;3.30;2.97;;;;;;;;;;5095008;28;20230;-63
2023/09/25 08:00:10;;;;;;;3.78;3.47;;;;;;;;;;5095954;28;20242;-61
2023/09/25 08:02:47;;;;;;;3.53;3.22;;;;;;;;;;5095572;28;20200;-63
2023/09/25 08:05:15;;;;;;;4.18;3.88;;;;;;;;;;5094448;28;20609;-61
2023/09/25 08:07:43;;;;;;;3.60;3.30;;;;;;;;;;5093021;28;20242;-63
2023/09/25 08:10:11;;;;;;;4.38;3.97;;;;;;;;;;5096074;28;20204;-63
2023/09/25 08:12:40;;;;;;;4.15;3.75;;;;;;;;;;5098727;28;20329;-63
2023/09/25 08:15:08;;;;;;;4.60;3.80;;;;;;;;;;5098257;28;20204;-63
2023/09/25 08:17:36;;;;;;;3.67;3.47;;;;;;;;;;5098234;28;20207;-62
2023/09/25 08:20:14;;;;;;;3.83;3.53;;;;;;;;;;5097550;28;20200;-62
2023/09/25 08:22:42;;;;;;;4.22;3.83;;;;;;;;;;5097856;28;20199;-62
2023/09/25 08:25:10;;;;;;;4.00;3.70;;;;;;;;;;5097455;28;20294;-63
2023/09/25 08:27:37;;;;;;;4.10;3.75;;;;;;;;;;5097391;28;20203;-63
2023/09/25 08:30:07;;;;;;;3.60;3.30;;;;;;;;;;5098343;28;20210;-63
2023/09/25 08:32:35;;;;;;;4.45;3.65;;;;;;;;;;5097785;28;20232;-63
2023/09/25 08:35:03;;;;;;;4.35;3.95;;;;;;;;;;5097958;28;20204;-61
2023/09/25 08:37:30;;;;;;;3.83;3.60;;;;;;;;;;5098246;28;20218;-63
2023/09/25 08:39:58;;;;;;;4.00;3.70;;;;;;;;;;5097069;28;20519;-61
2023/09/25 08:42:27;;;;;;;3.95;3.65;;;;;;;;;;5097504;28;20203;-61
2023/09/25 08:44:55;;;;;;;4.10;3.72;;;;;;;;;;5097696;28;20203;-62
2023/09/25 08:47:24;;;;;;;4.40;4.00;;;;;;;;;;5098393;28;20212;-61
2023/09/25 08:49:52;;;;;;;4.30;3.83;;;;;;;;;;5097635;28;20642;-63
2023/09/25 08:52:20;;;;;;;3.95;3.65;;;;;;;;;;5097841;28;20231;-63
2023/09/25 08:54:48;;;;;;;3.67;3.42;;;;;;;;;;5097542;28;20200;-61
2023/09/25 08:57:16;;;;;;;3.60;3.40;;;;;;;;;;5097088;28;20247;-61
2023/09/25 08:59:46;;;;;;;3.22;2.97;;;;;;;;;;5096538;28;20204;-61
2023/09/25 09:02:14;;;;;;;2.78;2.58;;;;;;;;;;5097183;28;20582;-64
2023/09/25 09:04:43;;;;;;;3.33;2.95;;;;;;;;;;5096573;28;20270;-61
2023/09/25 09:07:11;;;;;;;3.13;2.92;;;;;;;;;;5097312;28;20204;-61
2023/09/25 09:09:40;;;;;;;3.20;3.00;;;;;;;;;;5096087;28;20285;-61
2023/09/25 09:12:08;;;;;;;3.78;3.47;;;;;;;;;;5098064;28;20219;-61
2023/09/25 09:14:37;;;;;;;4.55;4.15;;;;;;;;;;5097530;28;20719;-61
2023/09/25 09:17:05;;;;;;;5.13;4.20;;;;;;;;;;5097389;28;20230;-61
2023/09/25 09:19:35;;;;;;;4.32;3.92;;;;;;;;;;5097554;28;20586;-64
2023/09/25 09:22:06;;;;;;;4.40;4.00;;;;;;;;;;5096649;28;20192;-63
2023/09/25 09:24:35;;;;;;;4.20;3.90;;;;;;;;;;5096892;28;20294;-61
2023/09/25 09:27:07;;;;;;;4.60;4.20;;;;;;;;;;5096706;28;20203;-64
2023/09/25 09:29:38;;;;;;;4.93;4.45;;;;;;;;;;5097128;28;20203;-63
2023/09/25 09:32:06;;;;;;;4.53;4.13;;;;;;;;;;5096483;28;20227;-64
2023/09/25 09:34:33;;;;;;;4.40;4.10;;;;;;;;;;5095986;28;20199;-62
2023/09/25 09:37:01;;;;;;;4.03;3.72;;;;;;;;;;5095817;28;20207;-61
2023/09/25 09:39:34;;;;;;;4.85;3.75;;;;;;;;;;5095600;28;20207;-63
2023/09/25 09:42:04;;;;;;;4.47;3.95;;;;;;;;;;5095688;28;20281;-63
2023/09/25 09:44:32;;;;;;;3.80;3.50;;;;;;;;;;5096514;28;20593;-63
2023/09/25 09:47:03;;;;;;;4.15;3.75;;;;;;;;;;5096550;28;20203;-63
2023/09/25 09:49:32;;;;;;;4.05;3.75;;;;;;;;;;5096804;28;20738;-63
2023/09/25 09:52:02;;;;;;;4.35;3.80;;;;;;;;;;5096880;28;20307;-63
2023/09/25 09:54:32;;;;;;;4.25;3.78;;;;;;;;;;5096288;28;20298;-63
2023/09/25 09:57:00;;;;;;;4.20;3.90;;;;;;;;;;5096830;28;20211;-63
2023/09/25 09:59:28;;;;;;;4.38;3.97;;;;;;;;;;5095769;28;20211;-63
2023/09/25 10:01:56;;;;;;;4.03;3.63;;;;;;;;;;5096280;28;20203;-63
2023/09/25 10:04:25;;;;;;;5.10;3.63;;;;;;;;;;5095147;28;20207;-63
2023/09/25 10:06:53;;;;;;;3.78;3.47;;;;;;;;;;5096258;28;20544;-63
2023/09/25 10:09:21;;;;;;;3.63;3.33;;;;;;;;;;5096216;28;20210;-63
2023/09/25 10:11:54;;;;;;;3.55;3.30;;;;;;;;;;5095602;28;20268;-63
2023/09/25 10:14:22;;;;;;;3.30;3.03;;;;;;;;;;5095333;28;20573;-63
2023/09/25 10:16:53;;;;;;;3.30;3.10;;;;;;;;;;5095179;28;20212;-63
2023/09/25 10:19:21;;;;;;;3.03;2.80;;;;;;;;;;5094937;28;20211;-63
2023/09/25 10:22:04;;;;;;;2.95;2.75;;;;;;;;;;5095241;28;20214;-63
2023/09/25 10:24:32;;;;;;;2.92;2.72;;;;;;;;;;5094582;28;20203;-63
2023/09/25 10:27:01;;;;;;;2.90;2.70;;;;;;;;;;5094199;28;20261;-63
2023/09/25 10:29:29;;;;;;;2.88;2.67;;;;;;;;;;5094221;28;20203;-63
2023/09/25 10:31:57;;;;;;;2.40;2.22;;;;;;;;;;5094670;28;20211;-63
2023/09/25 10:34:26;;;;;;;2.95;2.60;;;;;;;;;;5093806;28;20211;-63
2023/09/25 10:36:59;;;;;;;2.92;2.70;;;;;;;;;;5096527;28;20227;-63
2023/09/25 10:39:27;;;;;;;2.42;2.30;;;;;;;;;;5095312;28;20203;-63
2023/09/25 10:41:58;;;;;;;2.22;2.00;;;;;;;;;;5095499;28;20210;-63
2023/09/25 10:44:28;;;;;;;2.75;2.55;;;;;;;;;;5095707;28;20206;-63
2023/09/25 10:46:56;;;;;;;2.35;2.20;;;;;;;;;;5095631;28;20214;-63
2023/09/25 10:49:24;;;;;;;2.60;2.40;;;;;;;;;;5095678;28;20314;-63
2023/09/25 10:51:52;;;;;;;2.40;2.20;;;;;;;;;;5095190;28;20208;-63
2023/09/25 10:54:19;;;;;;;3.35;2.40;;;;;;;;;;5094830;28;20231;-63
2023/09/25 10:56:47;;;;;;;3.10;2.33;;;;;;;;;;5094929;28;20276;-62
2023/09/25 10:59:15;;;;;;;2.63;2.42;;;;;;;;;;5094741;28;20728;-62
2023/09/25 11:01:44;;;;;;;2.50;2.30;;;;;;;;;;5095013;28;20196;-62
2023/09/25 11:04:12;;;;;;;4.20;2.38;;;;;;;;;;5086218;28;20211;-62
2023/09/25 11:06:39;;;;;;;2.33;2.20;;;;;;;;;;5094302;28;20210;-62
2023/09/25 11:09:11;;;;;;;2.53;2.33;;;;;;;;;;5094246;28;20212;-62
2023/09/25 11:11:40;;;;;;;3.20;2.90;;;;;;;;;;5094159;28;20214;-62
2023/09/25 11:14:08;;;;;;;2.80;2.60;;;;;;;;;;5094291;28;20231;-62
2023/09/25 11:16:36;;;;;;;3.15;2.42;;;;;;;;;;5093751;28;20608;-63
2023/09/25 11:19:14;;;;;;;2.55;2.35;;;;;;;;;;5094443;28;20203;-62
2023/09/25 11:21:42;;;;;;;2.53;2.33;;;;;;;;;;5093157;28;20203;-62
2023/09/25 11:24:11;;;;;;;2.40;2.20;;;;;;;;;;5094061;28;20290;-62
2023/09/25 11:26:39;;;;;;;2.20;2.00;;;;;;;;;;5094003;28;20204;-63
2023/09/25 11:29:09;;;;;;;2.17;2.00;;;;;;;;;;5094195;28;20203;-62
2023/09/25 11:31:37;;;;;;;2.15;2.00;;;;;;;;;;5093479;28;20620;-62
2023/09/25 11:34:08;;;;;;;2.72;2.20;;;;;;;;;;5093744;28;20224;-62
2023/09/25 11:36:37;;;;;;;3.35;2.03;;;;;;;;;;5093374;28;20448;-62
2023/09/25 11:39:13;;;;;;;2.03;1.92;;;;;;;;;;5093663;28;20214;-62
2023/09/25 11:41:41;;;;;;;2.22;2.10;;;;;;;;;;5093340;28;20576;-62
2023/09/25 11:44:09;;;;;;;2.35;2.15;;;;;;;;;;5093599;28;20245;-63
2023/09/25 11:46:37;;;;;;;2.70;2.20;;;;;;;;;;5098297;28;20604;-62
2023/09/25 11:49:04;;;;;;;2.17;2.08;;;;;;;;;;5097160;28;20203;-63
2023/09/25 11:51:33;;;;;;;2.17;2.05;;;;;;;;;;5097007;28;20207;-62
2023/09/25 11:54:02;;;;;;;2.25;2.05;;;;;;;;;;5098342;28;20227;-62
2023/09/25 11:56:30;;;;;;;2.17;2.03;;;;;;;;;;5098018;28;20332;-63
2023/09/25 11:58:57;;;;;;;1.95;1.85;;;;;;;;;;5097645;28;20252;-63
2023/09/25 12:01:25;;;;;;;2.05;1.95;;;;;;;;;;5096755;28;20203;-62
2023/09/25 12:03:53;;;;;;;2.30;2.00;;;;;;;;;;5096583;28;20207;-62
2023/09/25 12:06:24;;;;;;;2.30;2.10;;;;;;;;;;5097111;28;20246;-62
2023/09/25 12:08:51;;;;;;;2.15;2.00;;;;;;;;;;5098095;28;20577;-62
2023/09/25 12:11:20;;;;;;;1.80;1.70;;;;;;;;;;5098458;28;20207;-62
2023/09/25 12:13:49;;;;;;;2.20;2.03;;;;;;;;;;5096706;28;20697;-62
2023/09/25 12:16:16;;;;;;;1.88;1.77;;;;;;;;;;5097625;28;20290;-62
2023/09/25 12:18:44;;;;;;;2.17;2.05;;;;;;;;;;5097566;28;20230;-62
2023/09/25 12:21:12;;;;;;;1.90;1.80;;;;;;;;;;5096871;28;20222;-63
2023/09/25 12:23:39;;;;;;;2.00;1.90;;;;;;;;;;5097105;28;20497;-62
2023/09/25 12:26:07;;;;;;;2.00;1.90;;;;;;;;;;5096445;28;20200;-62
2023/09/25 12:28:36;;;;;;;2.15;2.05;;;;;;;;;;5096424;28;20207;-62
2023/09/25 12:31:04;;;;;;;2.25;2.10;;;;;;;;;;5096079;28;20211;-62
2023/09/25 12:33:31;;;;;;;2.00;1.90;;;;;;;;;;5096056;28;20239;-63
2023/09/25 12:35:59;;;;;;;2.65;1.90;;;;;;;;;;5096687;28;20207;-63
2023/09/25 12:38:27;;;;;;;2.15;2.00;;;;;;;;;;5096043;28;20211;-62
2023/09/25 12:40:54;;;;;;;2.50;2.10;;;;;;;;;;5096040;28;20200;-63
2023/09/25 12:43:22;;;;;;;2.58;2.38;;;;;;;;;;5096087;28;20207;-62
2023/09/25 12:45:51;;;;;;;2.10;1.90;;;;;;;;;;5096898;28;20212;-62
2023/09/25 12:48:19;;;;;;;2.38;2.10;;;;;;;;;;5095879;28;20203;-62
2023/09/25 12:50:47;;;;;;;2.35;2.15;;;;;;;;;;5095893;28;20749;-62
2023/09/25 12:53:15;;;;;;;3.03;2.22;;;;;;;;;;5095455;28;20247;-62
2023/09/25 12:55:42;;;;;;;2.60;2.00;;;;;;;;;;5096075;28;20200;-63
2023/09/25 12:58:10;;;;;;;1.90;1.80;;;;;;;;;;5095528;28;20211;-62
2023/09/25 13:00:38;;;;;;;2.13;2.03;;;;;;;;;;5095237;28;20790;-62
2023/09/25 13:03:08;;;;;;;2.47;2.28;;;;;;;;;;5095756;28;20206;-63
2023/09/25 13:05:35;;;;;;;2.20;2.00;;;;;;;;;;5094925;28;20246;-63
2023/09/25 13:08:03;;;;;;;2.22;2.05;;;;;;;;;;5095595;28;20265;-62
2023/09/25 13:10:30;;;;;;;2.25;2.15;;;;;;;;;;5095790;28;20199;-62
2023/09/25 13:12:58;;;;;;;2.65;2.45;;;;;;;;;;5096302;28;20204;-61
2023/09/25 13:15:26;;;;;;;2.53;2.33;;;;;;;;;;5095556;28;20203;-61
2023/09/25 13:17:53;;;;;;;2.90;2.20;;;;;;;;;;5095152;28;20207;-61
2023/09/25 13:20:22;;;;;;;2.20;2.10;;;;;;;;;;5095508;28;20674;-61
2023/09/25 13:22:51;;;;;;;2.50;2.30;;;;;;;;;;5095477;28;20238;-61
2023/09/25 13:25:18;;;;;;;2.58;2.38;;;;;;;;;;5095751;28;20191;-61
2023/09/25 13:27:49;;;;;;;3.38;2.53;;;;;;;;;;5094442;28;20273;-61
2023/09/25 13:30:18;;;;;;;2.92;2.50;;;;;;;;;;5095230;28;20202;-62
2023/09/25 13:32:46;;;;;;;2.60;2.33;;;;;;;;;;5095485;28;20212;-62
2023/09/25 13:35:13;;;;;;;2.53;2.33;;;;;;;;;;5096208;28;20231;-62
2023/09/25 13:37:42;;;;;;;2.38;2.20;;;;;;;;;;5095389;28;20212;-62
2023/09/25 13:40:13;;;;;;;3.25;2.40;;;;;;;;;;5095484;28;20203;-62
2023/09/25 13:42:41;;;;;;;2.55;2.35;;;;;;;;;;5095267;28;20269;-62
2023/09/25 13:45:12;;;;;;;2.42;2.25;;;;;;;;;;5094911;28;20208;-63
2023/09/25 13:47:40;;;;;;;2.30;2.20;;;;;;;;;;5095730;28;20211;-62
2023/09/25 13:50:07;;;;;;;2.88;2.60;;;;;;;;;;5096068;28;20299;-61
2023/09/25 13:52:35;;;;;;;2.88;2.67;;;;;;;;;;5095548;28;20196;-62
2023/09/25 13:55:04;;;;;;;2.70;2.50;;;;;;;;;;5094203;28;20219;-63
2023/09/25 13:57:34;;;;;;;2.50;2.30;;;;;;;;;;5095169;28;20791;-62
2023/09/25 14:00:02;;;;;;;2.60;2.35;;;;;;;;;;5095000;28;20699;-62
2023/09/25 14:02:29;;;;;;;2.20;2.03;;;;;;;;;;5094164;28;20229;-61
2023/09/25 14:05:01;;;;;;;2.42;2.22;;;;;;;;;;5094289;28;20231;-62
2023/09/25 14:07:28;;;;;;;2.40;2.30;;;;;;;;;;5093862;28;20616;-62
2023/09/25 14:09:56;;;;;;;2.30;2.10;;;;;;;;;;5094122;28;20203;-62
2023/09/25 14:12:25;;;;;;;2.30;2.10;;;;;;;;;;5091033;28;20207;-62
2023/09/25 14:14:53;;;;;;;2.78;2.58;;;;;;;;;;5086979;28;20223;-62
2023/09/25 14:17:22;;;;;;;2.55;2.35;;;;;;;;;;5094428;28;20229;-62
2023/09/25 14:19:50;;;;;;;2.40;2.22;;;;;;;;;;5075901;28;20555;-62
2023/09/25 14:22:19;;;;;;;2.90;2.70;;;;;;;;;;5093770;28;20213;-62
2023/09/25 14:24:47;;;;;;;2.50;2.30;;;;;;;;;;5094284;28;20200;-62
2023/09/25 14:27:17;;;;;;;2.42;2.17;;;;;;;;;;5094050;28;20532;-62
2023/09/25 14:29:46;;;;;;;2.20;2.10;;;;;;;;;;5094169;28;20203;-62
2023/09/25 14:32:13;;;;;;;2.30;2.20;;;;;;;;;;5094563;28;20233;-62
2023/09/25 14:34:41;;;;;;;2.53;2.40;;;;;;;;;;5094637;28;20305;-62
2023/09/25 14:37:09;;;;;;;2.40;2.20;;;;;;;;;;5093777;28;20217;-62
2023/09/25 14:39:36;;;;;;;2.80;2.60;;;;;;;;;;5093564;28;20495;-62
2023/09/25 14:42:05;;;;;;;2.60;2.40;;;;;;;;;;5093075;28;20257;-62
2023/09/25 14:44:32;;;;;;;3.03;2.70;;;;;;;;;;5093196;28;20242;-62
2023/09/25 14:47:02;;;;;;;2.20;2.10;;;;;;;;;;5093765;28;20202;-62
2023/09/25 14:49:29;;;;;;;2.60;2.40;;;;;;;;;;5093754;28;20585;-62